Time;durP1;ratioP1;P1;durP2;ratioP2;P2;SDS_P1;SDS_P2;PMS_P1;PMS_P2;Temp;Humidity;BMP_temperature;BMP_pressure;BME280_temperature;BME280_humidity;BME280_pressure;Samples;Min_cycle;Max_cycle;Signal;HPM_P1;HPM_P2
2023/03/17 00:01:50;;;;;;;5.95;3.90;;;9.20;99.90;;;;;;4938196;29;20231;-74
2023/03/17 00:04:18;;;;;;;7.55;4.28;;;9.20;99.90;;;;;;4937003;29;20187;-78
2023/03/17 00:06:44;;;;;;;7.57;3.83;;;9.10;99.90;;;;;;4936890;29;20705;-74
2023/03/17 00:09:14;;;;;;;6.53;4.20;;;9.10;99.90;;;;;;4937755;29;20183;-76
2023/03/17 00:11:41;;;;;;;8.55;4.35;;;9.10;99.90;;;;;;4936881;29;20662;-73
2023/03/17 00:14:06;;;;;;;5.53;3.70;;;9.20;99.90;;;;;;4938101;29;20218;-76
2023/03/17 00:16:38;;;;;;;7.32;4.20;;;9.10;99.90;;;;;;4936826;29;20175;-74
2023/03/17 00:19:05;;;;;;;5.65;3.85;;;9.20;99.90;;;;;;4936728;29;20635;-74
2023/03/17 00:21:33;;;;;;;7.15;4.05;;;9.20;99.90;;;;;;4952895;29;20294;-74
2023/03/17 00:24:00;;;;;;;6.38;3.92;;;9.10;99.90;;;;;;4938588;29;20528;-78
2023/03/17 00:26:27;;;;;;;7.35;4.22;;;9.20;99.90;;;;;;4936745;29;20175;-74
2023/03/17 00:28:53;;;;;;;6.90;4.35;;;9.10;99.90;;;;;;4937847;29;20179;-76
2023/03/17 00:31:23;;;;;;;5.75;4.10;;;9.20;99.90;;;;;;4938234;29;20623;-75
2023/03/17 00:33:52;;;;;;;7.28;4.57;;;9.20;99.90;;;;;;4936813;29;20251;-75
2023/03/17 00:36:22;;;;;;;6.78;3.97;;;9.20;99.90;;;;;;4936852;29;20184;-75
2023/03/17 00:38:49;;;;;;;5.85;4.00;;;9.20;99.90;;;;;;4937770;29;20198;-77
2023/03/17 00:41:17;;;;;;;8.75;3.60;;;9.20;99.90;;;;;;4936409;29;20546;-75
2023/03/17 00:43:43;;;;;;;7.82;4.32;;;9.20;99.90;;;;;;4937211;29;20202;-75
2023/03/17 00:46:15;;;;;;;7.50;4.00;;;9.10;99.90;;;;;;4937842;28;20580;-74
2023/03/17 00:48:42;;;;;;;5.50;3.92;;;9.20;99.90;;;;;;4952458;29;20175;-75
2023/03/17 00:51:10;;;;;;;12.27;4.07;;;9.20;99.90;;;;;;4936032;29;20612;-75
2023/03/17 00:53:36;;;;;;;7.50;3.97;;;9.20;99.90;;;;;;4936063;29;20674;-75
2023/03/17 00:56:03;;;;;;;7.13;4.15;;;9.20;99.90;;;;;;4935759;29;20278;-74
2023/03/17 00:58:32;;;;;;;10.30;4.40;;;9.20;99.90;;;;;;4936804;29;20556;-75
2023/03/17 01:00:59;;;;;;;7.60;4.03;;;9.20;99.90;;;;;;4936740;29;20341;-75
2023/03/17 01:03:26;;;;;;;5.68;3.72;;;9.20;99.90;;;;;;4952134;28;20265;-74
2023/03/17 01:05:56;;;;;;;6.55;3.95;;;9.20;99.90;;;;;;4951852;29;20740;-74
2023/03/17 01:08:24;;;;;;;5.72;3.63;;;9.20;99.90;;;;;;4935909;28;20191;-75
2023/03/17 01:10:50;;;;;;;9.70;3.72;;;9.20;99.90;;;;;;4936917;29;20550;-75
2023/03/17 01:13:18;;;;;;;6.35;3.75;;;9.20;99.90;;;;;;4951494;29;20631;-75
2023/03/17 01:15:46;;;;;;;5.43;3.70;;;9.20;99.90;;;;;;4936740;29;20303;-75
2023/03/17 01:18:14;;;;;;;7.28;3.95;;;9.20;99.90;;;;;;4951702;29;20210;-74
2023/03/17 01:20:41;;;;;;;6.68;4.10;;;9.20;99.90;;;;;;4936728;29;20262;-74
2023/03/17 01:23:08;;;;;;;8.02;4.18;;;9.20;99.90;;;;;;4951611;29;20636;-74
2023/03/17 01:25:36;;;;;;;7.47;4.20;;;9.20;99.90;;;;;;4936381;29;20677;-75
2023/03/17 01:28:02;;;;;;;6.25;4.15;;;9.20;99.90;;;;;;4936643;29;20620;-74
2023/03/17 01:30:36;;;;;;;6.45;3.75;;;9.20;99.90;;;;;;4936859;29;20262;-74
2023/03/17 01:33:02;;;;;;;8.35;4.05;;;9.20;99.90;;;;;;4937423;29;20167;-73
2023/03/17 01:35:29;;;;;;;8.35;4.13;;;9.20;99.90;;;;;;4936541;29;20211;-74
2023/03/17 01:37:56;;;;;;;7.25;3.97;;;9.20;99.90;;;;;;4936459;29;20676;-74
2023/03/17 01:40:26;;;;;;;7.28;4.07;;;9.20;99.90;;;;;;4935288;29;20189;-74
2023/03/17 01:43:07;;;;;;;6.90;3.85;;;9.20;99.90;;;;;;4935401;28;20179;-74
2023/03/17 01:46:13;;;;;;;9.15;4.13;;;9.20;99.90;;;;;;4935268;29;20270;-73
2023/03/17 01:49:04;;;;;;;5.65;3.65;;;9.20;99.90;;;;;;4951166;29;20187;-74
2023/03/17 01:51:59;;;;;;;5.95;3.58;;;9.20;99.90;;;;;;4936792;29;20234;-75
2023/03/17 01:54:49;;;;;;;9.73;4.15;;;9.20;99.90;;;;;;4935252;29;20215;-74
2023/03/17 01:57:27;;;;;;;7.72;3.78;;;9.20;99.90;;;;;;4936488;29;20647;-74
2023/03/17 02:00:05;;;;;;;6.63;3.63;;;9.20;99.90;;;;;;4936559;29;20219;-74
2023/03/17 02:02:43;;;;;;;5.60;3.72;;;9.20;99.90;;;;;;4936059;29;20542;-74
2023/03/17 02:05:15;;;;;;;5.63;3.65;;;9.20;99.90;;;;;;4951132;29;20241;-73
2023/03/17 02:07:41;;;;;;;4.88;3.72;;;9.20;99.90;;;;;;4935174;29;20175;-74
2023/03/17 02:10:08;;;;;;;7.35;3.90;;;9.20;99.90;;;;;;4935581;29;20287;-74
2023/03/17 02:12:37;;;;;;;5.43;3.88;;;9.20;99.90;;;;;;4951628;29;20214;-73
2023/03/17 02:15:04;;;;;;;5.78;4.18;;;9.20;99.90;;;;;;4935005;29;20219;-74
2023/03/17 02:17:29;;;;;;;5.18;3.72;;;9.20;99.90;;;;;;4934905;29;20183;-74
2023/03/17 02:19:55;;;;;;;5.50;3.70;;;9.20;99.90;;;;;;4936056;29;20266;-74
2023/03/17 02:22:22;;;;;;;4.95;3.55;;;9.20;99.90;;;;;;4935584;29;20329;-74
2023/03/17 02:24:55;;;;;;;7.63;4.45;;;9.20;99.90;;;;;;4919580;29;20222;-74
2023/03/17 02:27:41;;;;;;;6.95;4.03;;;9.20;99.90;;;;;;4934713;29;20209;-74
2023/03/17 02:30:10;;;;;;;10.30;4.10;;;9.10;99.90;;;;;;4935369;29;20622;-74
2023/03/17 02:32:37;;;;;;;6.68;4.30;;;9.10;99.90;;;;;;4934677;29;20653;-73
2023/03/17 02:35:05;;;;;;;9.93;3.95;;;9.20;99.90;;;;;;4950922;29;20225;-74
2023/03/17 02:37:32;;;;;;;5.68;3.33;;;9.10;99.90;;;;;;4935811;29;20187;-73
2023/03/17 02:40:00;;;;;;;5.45;3.63;;;9.20;99.90;;;;;;4952218;28;20203;-73
2023/03/17 02:42:26;;;;;;;6.20;3.90;;;9.20;99.90;;;;;;4939950;29;20624;-74
2023/03/17 02:44:53;;;;;;;7.93;3.90;;;9.20;99.90;;;;;;4938572;29;20211;-73
2023/03/17 02:47:20;;;;;;;5.10;3.67;;;9.10;99.90;;;;;;4939746;29;20182;-74
2023/03/17 02:49:46;;;;;;;10.65;3.88;;;9.10;99.90;;;;;;4938309;29;20191;-74
2023/03/17 02:52:12;;;;;;;7.15;3.90;;;9.10;99.90;;;;;;4954279;29;20183;-74
2023/03/17 02:54:38;;;;;;;6.50;4.25;;;9.10;99.90;;;;;;4939283;29;20218;-73
2023/03/17 02:57:04;;;;;;;9.32;4.20;;;9.10;99.90;;;;;;4938046;29;20270;-80
2023/03/17 02:59:30;;;;;;;6.38;4.50;;;9.10;99.90;;;;;;4939364;29;20223;-74
2023/03/17 03:01:55;;;;;;;5.55;3.95;;;9.10;99.90;;;;;;4937894;29;20191;-74
2023/03/17 03:04:23;;;;;;;6.72;3.92;;;9.10;99.90;;;;;;4939073;29;20696;-74
2023/03/17 03:06:49;;;;;;;7.22;4.20;;;9.10;99.90;;;;;;4939221;29;20184;-74
2023/03/17 03:09:16;;;;;;;5.68;3.78;;;9.10;99.90;;;;;;4939433;29;20671;-74
2023/03/17 03:11:43;;;;;;;7.35;4.32;;;9.10;99.90;;;;;;4938911;29;20254;-74
2023/03/17 03:14:09;;;;;;;7.03;4.03;;;9.10;99.90;;;;;;4937977;29;20565;-74
2023/03/17 03:16:36;;;;;;;6.68;4.05;;;9.10;99.90;;;;;;4939525;29;20180;-75
2023/03/17 03:19:02;;;;;;;10.43;4.20;;;9.00;99.90;;;;;;4938926;29;20209;-76
2023/03/17 03:21:27;;;;;;;7.13;4.00;;;9.00;99.90;;;;;;4938926;29;20260;-73
2023/03/17 03:23:53;;;;;;;7.60;4.40;;;9.00;99.90;;;;;;4939131;29;20626;-74
2023/03/17 03:26:19;;;;;;;7.05;4.40;;;9.00;99.90;;;;;;4939578;29;20180;-74
2023/03/17 03:28:45;;;;;;;7.82;3.92;;;9.00;99.90;;;;;;4938805;29;20187;-73
2023/03/17 03:31:12;;;;;;;6.78;4.00;;;9.00;99.90;;;;;;4953562;29;20191;-72
2023/03/17 03:33:39;;;;;;;7.85;4.32;;;9.00;99.90;;;;;;4939138;29;20678;-73
2023/03/17 03:36:07;;;;;;;6.80;3.83;;;9.00;99.90;;;;;;4938556;29;20307;-73
2023/03/17 03:38:34;;;;;;;7.65;4.00;;;9.00;99.90;;;;;;4939077;29;20187;-74
2023/03/17 03:41:00;;;;;;;5.07;3.80;;;9.00;99.90;;;;;;4938653;29;20646;-74
2023/03/17 03:43:26;;;;;;;9.70;4.03;;;9.00;99.90;;;;;;4938764;29;20188;-74
2023/03/17 03:45:53;;;;;;;7.20;3.97;;;9.00;99.90;;;;;;4937254;29;20182;-77
2023/03/17 03:48:19;;;;;;;7.72;4.38;;;9.00;99.90;;;;;;4939111;29;20180;-74
2023/03/17 03:50:45;;;;;;;6.65;4.20;;;9.00;99.90;;;;;;4939214;29;20179;-74
2023/03/17 03:53:11;;;;;;;7.90;4.07;;;8.90;99.90;;;;;;4938333;29;20180;-74
2023/03/17 03:55:37;;;;;;;9.52;4.40;;;8.90;99.90;;;;;;4936789;29;20243;-74
2023/03/17 03:58:03;;;;;;;7.72;4.22;;;8.90;99.90;;;;;;4937277;29;20211;-74
2023/03/17 04:00:29;;;;;;;8.82;4.60;;;8.90;99.90;;;;;;4938640;29;20274;-74
2023/03/17 04:02:55;;;;;;;7.25;4.10;;;8.90;99.90;;;;;;4938630;29;20596;-74
2023/03/17 04:05:21;;;;;;;6.70;3.60;;;8.90;99.90;;;;;;4938408;29;20215;-74
2023/03/17 04:07:46;;;;;;;13.90;4.43;;;8.90;99.90;;;;;;4938652;29;20192;-74
2023/03/17 04:10:14;;;;;;;9.77;4.20;;;8.90;99.90;;;;;;4938230;29;20604;-75
2023/03/17 04:12:40;;;;;;;9.40;4.22;;;8.90;99.90;;;;;;4953107;29;20178;-75
2023/03/17 04:15:08;;;;;;;7.50;4.00;;;8.90;99.90;;;;;;4938210;29;20210;-74
2023/03/17 04:17:34;;;;;;;9.93;4.22;;;8.90;99.90;;;;;;4938325;29;20231;-74
2023/03/17 04:20:00;;;;;;;5.95;4.32;;;8.90;99.90;;;;;;4936321;29;20186;-75
2023/03/17 04:22:26;;;;;;;6.40;4.07;;;8.90;99.90;;;;;;4952592;28;20184;-74
2023/03/17 04:24:51;;;;;;;6.13;4.00;;;8.90;99.90;;;;;;4952368;29;20187;-74
2023/03/17 04:27:17;;;;;;;9.30;4.35;;;8.90;99.90;;;;;;4936648;29;20234;-77
2023/03/17 04:29:43;;;;;;;7.30;4.22;;;8.90;99.90;;;;;;4937109;29;20185;-74
2023/03/17 04:32:12;;;;;;;7.93;4.15;;;8.90;99.90;;;;;;4937003;29;20593;-74
2023/03/17 04:34:38;;;;;;;6.82;4.38;;;8.90;99.90;;;;;;4938184;29;20207;-75
2023/03/17 04:37:04;;;;;;;7.07;4.40;;;8.90;99.90;;;;;;4937415;29;20219;-74
2023/03/17 04:39:30;;;;;;;8.35;4.40;;;8.90;99.90;;;;;;4937467;29;20202;-74
2023/03/17 04:41:56;;;;;;;7.20;3.78;;;8.90;99.90;;;;;;4938055;29;20668;-75
2023/03/17 04:44:22;;;;;;;5.97;3.70;;;8.90;99.90;;;;;;4937333;29;20639;-75
2023/03/17 04:46:48;;;;;;;7.30;4.35;;;8.90;99.90;;;;;;4938385;29;20571;-74
2023/03/17 04:49:13;;;;;;;7.55;4.35;;;8.90;99.90;;;;;;4952226;29;20186;-75
2023/03/17 04:51:40;;;;;;;6.57;4.10;;;8.90;99.90;;;;;;4937476;28;20195;-75
2023/03/17 04:54:07;;;;;;;9.20;4.60;;;8.80;99.90;;;;;;4937554;29;20270;-74
2023/03/17 04:56:32;;;;;;;6.95;4.00;;;8.80;99.90;;;;;;4937043;29;20190;-74
2023/03/17 04:58:58;;;;;;;6.75;4.35;;;8.80;99.90;;;;;;4935725;29;20231;-76
2023/03/17 05:01:25;;;;;;;6.60;4.40;;;8.80;99.90;;;;;;4937620;29;20319;-74
2023/03/17 05:03:50;;;;;;;8.15;4.15;;;8.90;99.90;;;;;;4951820;28;20202;-74
2023/03/17 05:06:16;;;;;;;7.68;4.20;;;8.80;99.90;;;;;;4936807;29;20183;-74
2023/03/17 05:08:45;;;;;;;6.18;3.90;;;8.80;99.90;;;;;;4936502;29;20635;-74
2023/03/17 05:11:12;;;;;;;6.90;3.83;;;8.80;99.90;;;;;;4936851;29;20198;-74
2023/03/17 05:13:39;;;;;;;5.75;4.00;;;8.80;99.90;;;;;;4937011;29;20196;-74
2023/03/17 05:16:06;;;;;;;6.70;4.22;;;8.80;99.90;;;;;;4952124;29;20604;-74
2023/03/17 05:18:32;;;;;;;7.07;3.97;;;8.80;99.90;;;;;;4952052;28;20185;-74
2023/03/17 05:20:58;;;;;;;7.70;4.10;;;8.80;99.90;;;;;;4937525;29;20632;-74
2023/03/17 05:23:24;;;;;;;7.82;4.53;;;8.80;99.90;;;;;;4935730;29;20179;-74
2023/03/17 05:25:51;;;;;;;7.22;3.83;;;8.80;99.90;;;;;;4936575;29;20279;-75
2023/03/17 05:28:18;;;;;;;6.88;3.95;;;8.80;99.90;;;;;;4936976;29;20183;-75
2023/03/17 05:30:44;;;;;;;5.90;3.92;;;8.80;99.90;;;;;;4935650;29;20655;-74
2023/03/17 05:33:10;;;;;;;6.28;4.03;;;8.80;99.90;;;;;;4951337;29;20187;-74
2023/03/17 05:35:36;;;;;;;6.63;3.70;;;8.80;99.90;;;;;;4936466;29;20678;-74
2023/03/17 05:38:02;;;;;;;6.28;3.97;;;8.90;99.90;;;;;;4936625;29;20187;-74
2023/03/17 05:40:29;;;;;;;5.38;3.78;;;8.90;99.90;;;;;;4936514;29;20222;-74
2023/03/17 05:42:54;;;;;;;8.93;4.10;;;8.80;99.90;;;;;;4936157;29;20270;-74
2023/03/17 05:45:20;;;;;;;7.53;4.20;;;8.80;99.90;;;;;;4936632;29;20634;-80
2023/03/17 05:47:47;;;;;;;5.85;3.78;;;8.80;99.90;;;;;;4936921;29;20221;-79
2023/03/17 05:50:12;;;;;;;5.80;3.65;;;8.90;99.90;;;;;;4935136;29;20281;-75
2023/03/17 05:52:38;;;;;;;7.05;3.78;;;8.90;99.90;;;;;;4950687;29;20311;-74
2023/03/17 05:55:06;;;;;;;7.85;4.55;;;8.90;99.90;;;;;;4935983;29;20790;-74
2023/03/17 05:57:32;;;;;;;7.03;4.15;;;8.90;99.90;;;;;;4936138;29;20626;-74
2023/03/17 05:59:58;;;;;;;6.80;3.90;;;8.90;99.90;;;;;;4936445;29;20231;-75
2023/03/17 06:02:24;;;;;;;9.00;4.05;;;8.90;99.90;;;;;;4935738;28;20346;-74
2023/03/17 06:04:50;;;;;;;6.18;3.97;;;8.90;99.90;;;;;;4936356;29;20266;-74
2023/03/17 06:07:16;;;;;;;8.05;4.15;;;8.90;99.90;;;;;;4935923;29;20553;-75
2023/03/17 06:09:42;;;;;;;6.28;4.00;;;8.90;99.90;;;;;;4936599;29;20230;-74
2023/03/17 06:12:08;;;;;;;9.38;4.03;;;8.90;99.90;;;;;;4935981;29;20209;-73
2023/03/17 06:14:35;;;;;;;8.57;4.25;;;9.00;99.90;;;;;;4935085;29;20211;-73
2023/03/17 06:17:01;;;;;;;6.43;3.47;;;8.90;99.90;;;;;;4936288;29;20187;-74
2023/03/17 06:19:27;;;;;;;7.63;4.20;;;8.90;99.90;;;;;;4936397;29;20187;-75
2023/03/17 06:21:53;;;;;;;5.95;3.95;;;9.00;99.90;;;;;;4935450;29;20183;-74
2023/03/17 06:24:19;;;;;;;7.60;4.10;;;9.00;99.90;;;;;;4935693;29;20180;-74
2023/03/17 06:26:44;;;;;;;6.80;4.18;;;9.00;99.90;;;;;;4950537;29;20664;-73
2023/03/17 06:29:11;;;;;;;11.43;4.53;;;9.10;99.90;;;;;;4935625;29;20646;-74
2023/03/17 06:31:38;;;;;;;7.82;4.20;;;9.10;99.90;;;;;;4935808;29;20183;-74
2023/03/17 06:34:04;;;;;;;9.80;4.80;;;9.10;99.90;;;;;;4934494;29;20218;-74
2023/03/17 06:36:31;;;;;;;10.43;4.50;;;9.10;99.90;;;;;;4935798;29;20254;-73
2023/03/17 06:38:58;;;;;;;7.22;4.28;;;9.20;99.90;;;;;;4936077;29;20190;-81
2023/03/17 06:41:24;;;;;;;8.43;4.47;;;9.20;99.90;;;;;;4934475;29;20230;-73
2023/03/17 06:43:50;;;;;;;5.90;4.30;;;9.20;99.90;;;;;;4936031;29;20186;-74
2023/03/17 06:46:16;;;;;;;8.68;4.47;;;9.20;99.90;;;;;;4936083;29;20188;-73
2023/03/17 06:48:42;;;;;;;11.85;4.72;;;9.20;99.90;;;;;;4935569;29;20176;-75
2023/03/17 06:51:08;;;;;;;6.07;4.28;;;9.20;99.90;;;;;;4950274;29;20188;-73
2023/03/17 06:53:35;;;;;;;10.48;4.68;;;9.30;99.90;;;;;;4950595;28;20191;-73
2023/03/17 06:56:03;;;;;;;7.30;4.45;;;9.30;99.90;;;;;;4934316;29;20274;-75
2023/03/17 06:58:30;;;;;;;7.78;4.53;;;9.30;99.90;;;;;;4935558;29;20180;-74
2023/03/17 07:00:57;;;;;;;8.85;4.72;;;9.30;99.90;;;;;;4934414;29;20254;-76
2023/03/17 07:03:24;;;;;;;10.02;4.68;;;9.30;99.90;;;;;;4936277;29;20187;-73
2023/03/17 07:05:51;;;;;;;7.88;4.53;;;9.30;99.90;;;;;;4935345;29;20632;-74
2023/03/17 07:08:16;;;;;;;6.63;4.32;;;9.30;99.90;;;;;;4935616;29;20180;-76
2023/03/17 07:10:43;;;;;;;8.95;4.20;;;9.40;99.90;;;;;;4918305;29;20187;-72
2023/03/17 07:13:09;;;;;;;10.25;4.78;;;9.40;99.90;;;;;;4935931;29;20281;-75
2023/03/17 07:15:36;;;;;;;12.23;6.90;;;9.40;99.90;;;;;;4935209;29;20215;-73
2023/03/17 07:18:02;;;;;;;8.90;4.20;;;9.50;99.90;;;;;;4934613;29;20179;-77
2023/03/17 07:20:29;;;;;;;9.15;4.82;;;9.40;99.90;;;;;;4934690;29;20195;-75
2023/03/17 07:22:54;;;;;;;5.97;4.05;;;9.50;99.90;;;;;;4935146;29;20271;-75
2023/03/17 07:25:21;;;;;;;8.60;4.55;;;9.50;99.90;;;;;;4935634;29;20218;-74
2023/03/17 07:27:47;;;;;;;8.35;4.32;;;9.50;99.90;;;;;;4953299;29;20184;-75
2023/03/17 07:30:17;;;;;;;8.70;4.57;;;9.50;99.90;;;;;;4938534;29;20176;-74
2023/03/17 07:32:44;;;;;;;10.88;4.10;;;9.50;99.90;;;;;;4938491;29;20176;-75
2023/03/17 07:35:10;;;;;;;7.43;4.47;;;9.50;99.90;;;;;;4937488;29;20289;-74
2023/03/17 07:37:37;;;;;;;10.48;4.55;;;9.60;99.90;;;;;;4938498;29;20771;-74
2023/03/17 07:40:03;;;;;;;6.78;4.50;;;9.60;99.90;;;;;;4938381;29;20175;-74
2023/03/17 07:42:29;;;;;;;11.35;4.60;;;9.70;99.90;;;;;;4937069;29;20274;-74
2023/03/17 07:44:55;;;;;;;10.30;4.82;;;9.80;99.90;;;;;;4937000;29;20282;-75
2023/03/17 07:47:20;;;;;;;10.63;4.95;;;9.90;99.90;;;;;;4937195;29;20184;-74
2023/03/17 07:49:46;;;;;;;7.47;4.20;;;10.10;99.90;;;;;;4938353;29;20183;-75
2023/03/17 07:52:12;;;;;;;7.05;4.32;;;10.20;99.90;;;;;;4953413;29;20527;-73
2023/03/17 07:54:38;;;;;;;9.32;4.90;;;10.40;99.90;;;;;;4938270;29;20215;-73
2023/03/17 07:57:05;;;;;;;9.25;4.53;;;10.50;99.90;;;;;;4952879;29;20215;-75
2023/03/17 07:59:31;;;;;;;9.98;4.35;;;10.70;99.90;;;;;;4938246;29;20306;-74
2023/03/17 08:01:58;;;;;;;8.80;4.60;;;10.90;99.90;;;;;;4938146;29;20183;-73
2023/03/17 08:04:25;;;;;;;9.20;4.88;;;11.00;99.90;;;;;;4938499;29;20553;-73
2023/03/17 08:06:51;;;;;;;10.57;4.93;;;11.10;99.90;;;;;;4953141;29;20184;-75
2023/03/17 08:09:16;;;;;;;13.02;4.90;;;11.10;99.90;;;;;;4938185;29;20218;-74
2023/03/17 08:11:42;;;;;;;9.23;5.18;;;11.10;99.90;;;;;;4937660;29;20194;-73
2023/03/17 08:14:08;;;;;;;9.00;3.78;;;11.10;99.90;;;;;;4938376;29;20215;-74
2023/03/17 08:16:34;;;;;;;13.25;4.88;;;11.10;99.90;;;;;;4937379;29;20270;-74
2023/03/17 08:19:02;;;;;;;8.38;4.75;;;11.10;99.90;;;;;;4936953;29;20598;-77
2023/03/17 08:21:28;;;;;;;7.13;4.40;;;11.10;99.90;;;;;;4938055;29;20179;-75
2023/03/17 08:23:54;;;;;;;10.10;4.43;;;11.10;99.80;;;;;;4936742;29;20186;-73
2023/03/17 08:26:20;;;;;;;8.15;4.32;;;11.10;99.90;;;;;;4952443;29;20183;-75
2023/03/17 08:28:47;;;;;;;6.18;4.28;;;11.00;99.90;;;;;;4937459;29;20223;-77
2023/03/17 08:31:17;;;;;;;9.95;4.50;;;11.00;99.80;;;;;;4937499;29;20706;-77
2023/03/17 08:33:47;;;;;;;10.98;4.88;;;11.00;99.90;;;;;;4937864;29;20246;-74
2023/03/17 08:36:13;;;;;;;8.02;4.47;;;11.00;99.90;;;;;;4937248;29;20190;-75
2023/03/17 08:38:41;;;;;;;8.48;4.30;;;11.00;99.90;;;;;;4937142;29;20188;-73
2023/03/17 08:41:11;;;;;;;8.43;4.45;;;10.90;99.90;;;;;;4937311;29;20283;-73
2023/03/17 08:43:37;;;;;;;9.80;4.80;;;10.90;99.90;;;;;;4938033;29;20615;-73
2023/03/17 08:46:19;;;;;;;6.93;4.43;;;10.90;99.90;;;;;;4952015;29;20183;-73
2023/03/17 08:48:46;;;;;;;9.15;5.28;;;10.90;99.90;;;;;;4936540;29;20651;-74
2023/03/17 08:51:13;;;;;;;7.88;4.75;;;10.90;99.90;;;;;;4937440;29;20274;-73
2023/03/17 08:53:40;;;;;;;9.88;4.78;;;11.00;99.90;;;;;;4937300;29;20690;-78
2023/03/17 08:56:07;;;;;;;8.13;4.30;;;11.00;99.90;;;;;;4937098;29;20193;-73
2023/03/17 08:58:34;;;;;;;8.30;4.82;;;11.00;99.90;;;;;;4952035;28;20639;-73
2023/03/17 09:01:01;;;;;;;6.57;4.75;;;11.10;99.90;;;;;;4951610;28;20250;-73
2023/03/17 09:03:27;;;;;;;9.60;4.63;;;11.10;99.90;;;;;;4952172;29;20526;-74
2023/03/17 09:05:53;;;;;;;9.38;4.72;;;11.20;99.90;;;;;;4936069;29;20183;-74
2023/03/17 09:08:20;;;;;;;9.80;4.72;;;11.30;99.90;;;;;;4936864;29;20179;-79
2023/03/17 09:10:46;;;;;;;8.43;4.75;;;11.50;99.90;;;;;;4937107;29;20246;-74
2023/03/17 09:13:12;;;;;;;10.85;4.88;;;11.70;99.90;;;;;;4937376;29;20191;-74
2023/03/17 09:15:39;;;;;;;8.15;4.57;;;12.00;99.50;;;;;;4937337;29;20203;-74
2023/03/17 09:18:06;;;;;;;10.27;4.68;;;12.20;99.00;;;;;;4937104;29;20279;-78
2023/03/17 09:20:33;;;;;;;7.82;4.90;;;12.40;98.80;;;;;;4936855;29;20182;-73
2023/03/17 09:22:59;;;;;;;9.43;4.80;;;12.80;98.60;;;;;;4937588;29;20172;-73
2023/03/17 09:25:26;;;;;;;10.55;4.85;;;13.30;98.10;;;;;;4936937;29;20573;-73
2023/03/17 09:27:52;;;;;;;7.18;4.50;;;13.70;97.30;;;;;;4936617;29;20638;-73
2023/03/17 09:30:18;;;;;;;7.80;4.18;;;14.20;96.40;;;;;;4935488;29;20194;-74
2023/03/17 09:32:44;;;;;;;12.27;4.15;;;14.40;95.70;;;;;;4936971;29;20190;-73
2023/03/17 09:35:11;;;;;;;6.95;4.53;;;14.60;95.30;;;;;;4936766;29;20219;-73
2023/03/17 09:37:37;;;;;;;11.20;5.22;;;14.80;94.90;;;;;;4936362;29;20183;-80
2023/03/17 09:40:07;;;;;;;9.68;5.00;;;14.90;94.50;;;;;;4936273;29;20246;-73
2023/03/17 09:43:10;;;;;;;7.82;4.22;;;15.20;94.10;;;;;;4936886;29;20176;-74
2023/03/17 09:45:38;;;;;;;9.70;4.90;;;15.60;93.40;;;;;;4936805;29;20209;-74
2023/03/17 09:48:33;;;;;;;8.18;4.88;;;15.90;92.70;;;;;;4936221;29;20175;-74
2023/03/17 09:51:07;;;;;;;7.70;4.47;;;16.10;91.70;;;;;;4935638;29;20221;-74
2023/03/17 09:53:49;;;;;;;6.80;4.50;;;16.50;91.70;;;;;;4935502;29;20171;-73
2023/03/17 09:56:17;;;;;;;10.18;4.50;;;16.70;91.00;;;;;;4936453;29;20178;-73
2023/03/17 09:59:18;;;;;;;8.80;4.47;;;16.90;90.20;;;;;;4936006;29;20176;-75
2023/03/17 10:01:44;;;;;;;8.88;4.20;;;16.90;88.90;;;;;;4932661;29;20199;-72
2023/03/17 10:04:10;;;;;;;6.97;4.10;;;17.00;88.90;;;;;;4934763;29;20187;-72
2023/03/17 10:06:43;;;;;;;7.25;4.20;;;17.20;88.10;;;;;;4951406;29;20198;-75
2023/03/17 10:09:35;;;;;;;6.80;4.43;;;17.40;86.90;;;;;;4936620;29;20178;-72
2023/03/17 10:12:08;;;;;;;7.25;4.15;;;17.40;85.40;;;;;;4935680;29;20198;-72
2023/03/17 10:14:47;;;;;;;8.00;4.25;;;17.30;85.00;;;;;;4936028;29;20600;-72
2023/03/17 10:17:19;;;;;;;7.82;4.43;;;17.30;85.30;;;;;;4950715;29;20533;-73
2023/03/17 10:20:03;;;;;;;7.10;4.55;;;17.30;85.30;;;;;;4936456;29;20231;-73
2023/03/17 10:22:33;;;;;;;10.40;4.60;;;17.40;84.80;;;;;;4935869;29;20171;-72
2023/03/17 10:25:11;;;;;;;9.30;4.40;;;17.50;84.60;;;;;;4936273;29;20168;-72
2023/03/17 10:27:37;;;;;;;6.53;4.10;;;17.50;83.70;;;;;;4936375;29;20167;-73
2023/03/17 10:30:24;;;;;;;7.55;4.15;;;17.60;84.00;;;;;;4936290;29;20183;-73
2023/03/17 10:32:52;;;;;;;8.27;4.35;;;17.80;83.80;;;;;;4936737;29;20163;-73
2023/03/17 10:35:20;;;;;;;8.75;4.32;;;17.90;82.90;;;;;;4951003;28;20682;-74
2023/03/17 10:37:46;;;;;;;12.00;4.93;;;18.10;83.00;;;;;;4935707;29;20175;-74
2023/03/17 10:40:34;;;;;;;11.10;4.60;;;18.50;81.40;;;;;;4935893;29;20184;-73
2023/03/17 10:43:06;;;;;;;11.00;4.85;;;18.90;80.20;;;;;;4936461;29;20167;-74
2023/03/17 10:45:34;;;;;;;8.95;4.10;;;19.30;79.20;;;;;;4935772;29;20174;-72
2023/03/17 10:48:03;;;;;;;8.50;4.82;;;19.70;77.70;;;;;;4935830;29;20211;-74
2023/03/17 10:50:35;;;;;;;8.80;5.30;;;20.00;75.90;;;;;;4934989;29;20187;-74
2023/03/17 10:53:17;;;;;;;10.07;4.32;;;20.40;73.90;;;;;;4935771;29;20715;-74
2023/03/17 10:55:49;;;;;;;7.00;4.68;;;20.70;71.60;;;;;;4935426;29;20213;-79
2023/03/17 10:58:33;;;;;;;7.07;4.50;;;21.10;70.40;;;;;;4936844;29;20163;-73
2023/03/17 11:01:06;;;;;;;12.18;4.88;;;21.50;68.90;;;;;;4951633;28;20627;-75
2023/03/17 11:03:37;;;;;;;10.57;5.03;;;21.80;67.40;;;;;;4937935;29;20171;-74
2023/03/17 11:06:11;;;;;;;8.77;4.80;;;22.00;65.20;;;;;;4939108;29;20226;-74
2023/03/17 11:08:44;;;;;;;11.20;5.03;;;22.20;63.80;;;;;;4939515;29;20230;-75
2023/03/17 11:11:26;;;;;;;9.35;5.05;;;22.20;62.70;;;;;;4939852;29;20514;-74
2023/03/17 11:14:10;;;;;;;8.65;5.05;;;22.20;61.50;;;;;;4939535;29;20177;-75
2023/03/17 11:16:47;;;;;;;9.45;4.40;;;22.10;62.80;;;;;;4939470;29;20163;-74
2023/03/17 11:19:16;;;;;;;8.07;5.10;;;21.90;62.70;;;;;;4938747;29;20546;-74
2023/03/17 11:21:58;;;;;;;7.43;4.80;;;21.70;63.30;;;;;;4939198;29;20179;-75
2023/03/17 11:24:30;;;;;;;7.47;4.65;;;21.50;63.50;;;;;;4939473;29;20266;-77
2023/03/17 11:27:09;;;;;;;6.47;4.47;;;21.30;64.40;;;;;;4937955;29;20250;-77
2023/03/17 11:29:47;;;;;;;7.88;5.22;;;21.20;65.10;;;;;;4939364;29;20246;-74
2023/03/17 11:32:14;;;;;;;9.45;4.70;;;21.10;65.50;;;;;;4939238;29;20167;-74
2023/03/17 11:34:47;;;;;;;10.13;5.18;;;21.10;66.10;;;;;;4939051;29;20266;-74
2023/03/17 11:37:32;;;;;;;7.10;4.57;;;21.10;66.10;;;;;;4939330;29;20202;-74
2023/03/17 11:40:18;;;;;;;7.43;4.57;;;21.10;66.30;;;;;;4938992;29;20175;-78
2023/03/17 11:43:20;;;;;;;7.00;4.25;;;21.10;66.80;;;;;;4939033;29;20744;-75
2023/03/17 11:46:01;;;;;;;8.52;4.82;;;21.20;66.90;;;;;;4938339;29;20164;-76
2023/03/17 11:48:55;;;;;;;9.45;5.75;;;21.30;66.80;;;;;;4939065;29;20254;-75
2023/03/17 11:51:44;;;;;;;11.70;5.85;;;21.30;66.80;;;;;;4939139;29;20509;-75
2023/03/17 11:54:28;;;;;;;9.07;5.13;;;21.30;66.50;;;;;;4953186;29;20222;-79
2023/03/17 11:57:01;;;;;;;12.02;6.05;;;21.30;66.30;;;;;;4938507;29;20206;-78
2023/03/17 11:59:52;;;;;;;9.82;5.07;;;21.20;66.50;;;;;;4953143;29;20182;-75
2023/03/17 12:02:32;;;;;;;8.93;5.50;;;21.20;66.30;;;;;;4953797;29;20187;-73
2023/03/17 12:05:09;;;;;;;9.85;5.40;;;21.10;66.60;;;;;;4953847;29;20627;-74
2023/03/17 12:07:40;;;;;;;9.55;5.63;;;21.10;67.30;;;;;;4938655;29;20654;-75
2023/03/17 12:10:21;;;;;;;9.48;5.50;;;21.00;67.90;;;;;;4938331;29;20160;-74
2023/03/17 12:13:24;;;;;;;12.88;5.43;;;21.00;68.00;;;;;;4936797;29;20175;-75
2023/03/17 12:15:57;;;;;;;10.02;5.40;;;21.00;68.10;;;;;;4937711;29;20194;-74
2023/03/17 12:18:45;;;;;;;8.98;5.82;;;21.00;68.00;;;;;;4937760;29;20258;-74
2023/03/17 12:21:22;;;;;;;10.82;5.97;;;21.10;67.80;;;;;;4937851;29;20246;-75
2023/03/17 12:23:59;;;;;;;13.15;6.20;;;21.10;67.00;;;;;;4938410;29;20563;-80
2023/03/17 12:26:49;;;;;;;16.27;6.55;;;21.00;67.20;;;;;;4937892;29;20639;-74
2023/03/17 12:29:33;;;;;;;10.98;6.25;;;21.00;67.70;;;;;;4937691;29;20176;-73
2023/03/17 12:32:25;;;;;;;11.90;6.00;;;21.00;67.90;;;;;;4937679;29;20610;-74
2023/03/17 12:34:55;;;;;;;14.90;6.07;;;21.00;68.00;;;;;;4937597;29;20259;-74
2023/03/17 12:37:22;;;;;;;12.00;6.47;;;21.00;68.20;;;;;;4937901;29;20183;-74
2023/03/17 12:40:04;;;;;;;12.30;6.50;;;21.00;68.70;;;;;;4937329;29;20270;-74
2023/03/17 12:42:45;;;;;;;13.10;6.70;;;21.00;68.40;;;;;;4937357;29;20172;-74
2023/03/17 12:45:49;;;;;;;11.43;7.45;;;21.00;68.60;;;;;;4937666;29;20242;-74
2023/03/17 12:48:15;;;;;;;12.85;6.97;;;21.00;68.10;;;;;;4937186;29;20204;-75
2023/03/17 12:51:09;;;;;;;11.52;6.78;;;20.90;68.60;;;;;;4951987;29;20300;-75
2023/03/17 12:53:43;;;;;;;14.38;6.97;;;20.90;68.90;;;;;;4937161;29;20261;-74
2023/03/17 12:56:14;;;;;;;11.07;6.60;;;20.80;69.70;;;;;;4937403;29;20270;-74
2023/03/17 12:58:45;;;;;;;12.68;7.53;;;20.70;70.20;;;;;;4937250;29;20168;-75
2023/03/17 13:01:36;;;;;;;13.98;7.40;;;20.70;70.60;;;;;;4936093;29;20575;-74
2023/03/17 13:04:11;;;;;;;10.20;6.53;;;20.70;70.60;;;;;;4937053;29;20184;-74
2023/03/17 13:06:47;;;;;;;10.25;6.53;;;20.60;70.50;;;;;;4937594;29;20194;-74